sensor_id;sensor_type;location;lat;lon;timestamp;temperature;humidity
44695;DHT22;32845;59.422;17.930;2023-04-06T00:00:55;-0.70;99.90
44695;DHT22;32845;59.422;17.930;2023-04-06T00:05:26;-0.80;99.90
44695;DHT22;32845;59.422;17.930;2023-04-06T00:09:58;-0.90;99.90
44695;DHT22;32845;59.422;17.930;2023-04-06T00:14:29;-0.90;99.90
44695;DHT22;32845;59.422;17.930;2023-04-06T00:19:00;-0.90;99.90
44695;DHT22;32845;59.422;17.930;2023-04-06T00:23:30;-1.00;99.90
44695;DHT22;32845;59.422;17.930;2023-04-06T00:28:01;-1.00;99.90
44695;DHT22;32845;59.422;17.930;2023-04-06T00:32:32;-1.10;99.90
44695;DHT22;32845;59.422;17.930;2023-04-06T00:37:02;-1.20;99.90
44695;DHT22;32845;59.422;17.930;2023-04-06T00:41:33;-1.20;99.90
44695;DHT22;32845;59.422;17.930;2023-04-06T00:46:04;-1.20;99.90
44695;DHT22;32845;59.422;17.930;2023-04-06T00:50:35;-1.20;99.90
44695;DHT22;32845;59.422;17.930;2023-04-06T00:55:06;-1.10;99.90
44695;DHT22;32845;59.422;17.930;2023-04-06T00:59:37;-1.10;99.90
44695;DHT22;32845;59.422;17.930;2023-04-06T01:04:08;-1.10;99.90
44695;DHT22;32845;59.422;17.930;2023-04-06T01:08:39;-1.10;99.90
44695;DHT22;32845;59.422;17.930;2023-04-06T01:13:09;-1.20;99.90
44695;DHT22;32845;59.422;17.930;2023-04-06T01:17:40;-1.20;99.90
44695;DHT22;32845;59.422;17.930;2023-04-06T01:22:18;-1.20;99.90
44695;DHT22;32845;59.422;17.930;2023-04-06T01:26:49;-1.20;99.90
44695;DHT22;32845;59.422;17.930;2023-04-06T01:31:21;-1.20;99.90
44695;DHT22;32845;59.422;17.930;2023-04-06T01:35:51;-1.20;99.90
44695;DHT22;32845;59.422;17.930;2023-04-06T01:40:22;-1.20;99.90
44695;DHT22;32845;59.422;17.930;2023-04-06T01:44:53;-1.20;99.90
44695;DHT22;32845;59.422;17.930;2023-04-06T01:49:23;-1.20;99.90
44695;DHT22;32845;59.422;17.930;2023-04-06T01:53:55;-1.10;99.90
44695;DHT22;32845;59.422;17.930;2023-04-06T01:58:25;-1.10;99.90
44695;DHT22;32845;59.422;17.930;2023-04-06T02:02:56;-1.00;99.90
44695;DHT22;32845;59.422;17.930;2023-04-06T02:07:27;-0.90;99.90
44695;DHT22;32845;59.422;17.930;2023-04-06T02:11:58;-0.80;99.90
44695;DHT22;32845;59.422;17.930;2023-04-06T02:16:28;-0.80;99.90
44695;DHT22;32845;59.422;17.930;2023-04-06T02:20:59;-0.70;99.90
44695;DHT22;32845;59.422;17.930;2023-04-06T02:25:30;-0.60;99.90
44695;DHT22;32845;59.422;17.930;2023-04-06T02:30:00;-0.50;99.90
44695;DHT22;32845;59.422;17.930;2023-04-06T02:34:31;-0.40;99.90
44695;DHT22;32845;59.422;17.930;2023-04-06T02:39:02;-0.30;99.90
44695;DHT22;32845;59.422;17.930;2023-04-06T02:43:33;-0.30;99.90
44695;DHT22;32845;59.422;17.930;2023-04-06T02:48:04;-0.20;99.90
44695;DHT22;32845;59.422;17.930;2023-04-06T02:52:35;-0.20;99.90
44695;DHT22;32845;59.422;17.930;2023-04-06T02:57:06;-0.10;99.90
44695;DHT22;32845;59.422;17.930;2023-04-06T03:01:37;-0.10;99.90
44695;DHT22;32845;59.422;17.930;2023-04-06T03:06:07;-0.10;99.90
44695;DHT22;32845;59.422;17.930;2023-04-06T03:10:38;0.00;99.90
44695;DHT22;32845;59.422;17.930;2023-04-06T03:15:09;0.00;99.90
44695;DHT22;32845;59.422;17.930;2023-04-06T03:19:40;0.00;99.90
44695;DHT22;32845;59.422;17.930;2023-04-06T03:24:10;0.10;99.90
44695;DHT22;32845;59.422;17.930;2023-04-06T03:28:41;0.10;99.90
44695;DHT22;32845;59.422;17.930;2023-04-06T03:33:12;0.20;99.90
44695;DHT22;32845;59.422;17.930;2023-04-06T03:37:43;0.20;99.90
44695;DHT22;32845;59.422;17.930;2023-04-06T03:42:13;0.20;99.90
44695;DHT22;32845;59.422;17.930;2023-04-06T03:46:44;0.20;99.90
44695;DHT22;32845;59.422;17.930;2023-04-06T03:51:15;0.30;99.90
44695;DHT22;32845;59.422;17.930;2023-04-06T03:55:45;0.30;99.90
44695;DHT22;32845;59.422;17.930;2023-04-06T04:00:16;0.30;99.90
44695;DHT22;32845;59.422;17.930;2023-04-06T04:04:47;0.30;99.90
44695;DHT22;32845;59.422;17.930;2023-04-06T04:09:17;0.30;99.90
44695;DHT22;32845;59.422;17.930;2023-04-06T04:13:48;0.40;99.90
44695;DHT22;32845;59.422;17.930;2023-04-06T04:18:19;0.40;99.90
44695;DHT22;32845;59.422;17.930;2023-04-06T04:22:50;0.40;99.90
44695;DHT22;32845;59.422;17.930;2023-04-06T04:27:20;0.40;99.90
44695;DHT22;32845;59.422;17.930;2023-04-06T04:31:51;0.40;99.90
44695;DHT22;32845;59.422;17.930;2023-04-06T04:36:22;0.50;99.90
44695;DHT22;32845;59.422;17.930;2023-04-06T04:40:54;0.50;99.90
44695;DHT22;32845;59.422;17.930;2023-04-06T04:45:25;0.50;99.90
44695;DHT22;32845;59.422;17.930;2023-04-06T04:49:56;0.50;99.90
44695;DHT22;32845;59.422;17.930;2023-04-06T04:54:26;0.50;99.90
44695;DHT22;32845;59.422;17.930;2023-04-06T04:58:57;0.60;99.90
44695;DHT22;32845;59.422;17.930;2023-04-06T05:03:28;0.60;99.90
44695;DHT22;32845;59.422;17.930;2023-04-06T05:07:59;0.70;99.90
44695;DHT22;32845;59.422;17.930;2023-04-06T05:12:30;0.70;99.90
44695;DHT22;32845;59.422;17.930;2023-04-06T05:17:00;0.70;99.90
44695;DHT22;32845;59.422;17.930;2023-04-06T05:21:31;0.80;99.90
44695;DHT22;32845;59.422;17.930;2023-04-06T05:26:02;0.80;99.90
44695;DHT22;32845;59.422;17.930;2023-04-06T05:30:33;0.90;99.90
44695;DHT22;32845;59.422;17.930;2023-04-06T05:35:05;0.90;99.90
44695;DHT22;32845;59.422;17.930;2023-04-06T05:39:36;1.00;99.90
44695;DHT22;32845;59.422;17.930;2023-04-06T05:44:07;1.00;99.90
44695;DHT22;32845;59.422;17.930;2023-04-06T05:48:38;1.00;99.90
44695;DHT22;32845;59.422;17.930;2023-04-06T05:53:08;1.00;99.90
44695;DHT22;32845;59.422;17.930;2023-04-06T05:57:39;1.10;99.90
44695;DHT22;32845;59.422;17.930;2023-04-06T06:02:10;1.20;99.90
44695;DHT22;32845;59.422;17.930;2023-04-06T06:06:41;1.20;99.90
44695;DHT22;32845;59.422;17.930;2023-04-06T06:11:11;1.30;99.90
44695;DHT22;32845;59.422;17.930;2023-04-06T06:15:42;1.40;99.90
44695;DHT22;32845;59.422;17.930;2023-04-06T06:20:13;1.40;99.90
44695;DHT22;32845;59.422;17.930;2023-04-06T06:24:44;1.50;99.90
44695;DHT22;32845;59.422;17.930;2023-04-06T06:29:15;1.50;99.90
44695;DHT22;32845;59.422;17.930;2023-04-06T06:33:46;1.60;99.90
44695;DHT22;32845;59.422;17.930;2023-04-06T06:38:20;1.60;99.90
44695;DHT22;32845;59.422;17.930;2023-04-06T06:42:51;1.70;99.90
44695;DHT22;32845;59.422;17.930;2023-04-06T06:47:21;1.80;99.90
44695;DHT22;32845;59.422;17.930;2023-04-06T06:51:52;1.80;99.90
44695;DHT22;32845;59.422;17.930;2023-04-06T06:56:23;1.90;99.90
44695;DHT22;32845;59.422;17.930;2023-04-06T07:00:57;2.00;99.90
44695;DHT22;32845;59.422;17.930;2023-04-06T07:05:28;2.10;99.90
44695;DHT22;32845;59.422;17.930;2023-04-06T07:10:00;2.10;99.90
44695;DHT22;32845;59.422;17.930;2023-04-06T07:14:31;2.20;99.90
44695;DHT22;32845;59.422;17.930;2023-04-06T07:19:02;2.30;99.90
44695;DHT22;32845;59.422;17.930;2023-04-06T07:23:33;2.40;99.90
44695;DHT22;32845;59.422;17.930;2023-04-06T07:28:04;2.50;99.90
44695;DHT22;32845;59.422;17.930;2023-04-06T07:32:35;2.50;99.90
44695;DHT22;32845;59.422;17.930;2023-04-06T07:37:06;2.70;99.90
44695;DHT22;32845;59.422;17.930;2023-04-06T07:41:36;2.70;99.90
44695;DHT22;32845;59.422;17.930;2023-04-06T07:46:07;2.80;99.90
44695;DHT22;32845;59.422;17.930;2023-04-06T07:50:38;3.00;99.90
44695;DHT22;32845;59.422;17.930;2023-04-06T07:55:09;3.10;99.90
44695;DHT22;32845;59.422;17.930;2023-04-06T07:59:39;3.20;99.90
44695;DHT22;32845;59.422;17.930;2023-04-06T08:04:10;3.40;99.90
44695;DHT22;32845;59.422;17.930;2023-04-06T08:08:42;3.50;99.90
44695;DHT22;32845;59.422;17.930;2023-04-06T08:13:12;3.60;99.90
44695;DHT22;32845;59.422;17.930;2023-04-06T08:17:43;3.70;99.90
44695;DHT22;32845;59.422;17.930;2023-04-06T08:22:14;3.80;99.90
44695;DHT22;32845;59.422;17.930;2023-04-06T08:26:44;3.80;99.90
44695;DHT22;32845;59.422;17.930;2023-04-06T08:31:15;3.90;99.90
44695;DHT22;32845;59.422;17.930;2023-04-06T08:35:46;3.90;99.90
44695;DHT22;32845;59.422;17.930;2023-04-06T08:40:17;4.00;99.90
44695;DHT22;32845;59.422;17.930;2023-04-06T08:44:50;3.90;99.90
44695;DHT22;32845;59.422;17.930;2023-04-06T08:49:22;3.90;99.90
44695;DHT22;32845;59.422;17.930;2023-04-06T08:53:54;3.80;99.90
44695;DHT22;32845;59.422;17.930;2023-04-06T08:58:27;3.80;99.90
44695;DHT22;32845;59.422;17.930;2023-04-06T09:02:58;3.80;99.90
44695;DHT22;32845;59.422;17.930;2023-04-06T09:07:29;3.80;99.90
44695;DHT22;32845;59.422;17.930;2023-04-06T09:12:01;3.80;99.90
44695;DHT22;32845;59.422;17.930;2023-04-06T09:16:40;3.80;99.90
44695;DHT22;32845;59.422;17.930;2023-04-06T09:21:12;3.90;99.90
44695;DHT22;32845;59.422;17.930;2023-04-06T09:25:43;4.00;99.90
44695;DHT22;32845;59.422;17.930;2023-04-06T09:30:14;4.10;99.90
44695;DHT22;32845;59.422;17.930;2023-04-06T09:34:46;4.20;99.90
44695;DHT22;32845;59.422;17.930;2023-04-06T09:39:21;4.30;99.90
44695;DHT22;32845;59.422;17.930;2023-04-06T09:44:21;4.40;99.90
44695;DHT22;32845;59.422;17.930;2023-04-06T09:48:54;4.50;99.90
44695;DHT22;32845;59.422;17.930;2023-04-06T09:53:26;4.50;99.90
44695;DHT22;32845;59.422;17.930;2023-04-06T09:58:04;4.50;99.90
44695;DHT22;32845;59.422;17.930;2023-04-06T10:07:45;4.70;99.90
44695;DHT22;32845;59.422;17.930;2023-04-06T10:12:17;4.80;99.90
44695;DHT22;32845;59.422;17.930;2023-04-06T10:16:48;5.00;99.90
44695;DHT22;32845;59.422;17.930;2023-04-06T10:21:24;5.10;99.90
44695;DHT22;32845;59.422;17.930;2023-04-06T10:25:59;5.20;99.90
44695;DHT22;32845;59.422;17.930;2023-04-06T10:30:30;5.20;99.90
44695;DHT22;32845;59.422;17.930;2023-04-06T10:35:11;5.20;99.90
44695;DHT22;32845;59.422;17.930;2023-04-06T10:39:53;5.10;99.90
44695;DHT22;32845;59.422;17.930;2023-04-06T10:44:28;5.00;99.90
44695;DHT22;32845;59.422;17.930;2023-04-06T10:49:12;5.10;99.90
44695;DHT22;32845;59.422;17.930;2023-04-06T10:53:45;5.20;99.90
44695;DHT22;32845;59.422;17.930;2023-04-06T10:58:17;5.40;99.90
44695;DHT22;32845;59.422;17.930;2023-04-06T11:02:48;5.80;99.90
44695;DHT22;32845;59.422;17.930;2023-04-06T11:07:23;6.30;99.90
44695;DHT22;32845;59.422;17.930;2023-04-06T11:11:54;6.50;99.90
44695;DHT22;32845;59.422;17.930;2023-04-06T11:16:29;6.50;99.90
44695;DHT22;32845;59.422;17.930;2023-04-06T11:21:00;6.50;99.90
44695;DHT22;32845;59.422;17.930;2023-04-06T11:25:30;6.40;99.90
44695;DHT22;32845;59.422;17.930;2023-04-06T11:30:03;6.40;99.90
44695;DHT22;32845;59.422;17.930;2023-04-06T11:34:38;6.50;99.90
44695;DHT22;32845;59.422;17.930;2023-04-06T11:39:09;6.50;99.90
44695;DHT22;32845;59.422;17.930;2023-04-06T11:43:47;6.50;99.90
44695;DHT22;32845;59.422;17.930;2023-04-06T11:48:19;6.40;99.90
44695;DHT22;32845;59.422;17.930;2023-04-06T11:52:59;6.60;99.90
44695;DHT22;32845;59.422;17.930;2023-04-06T11:57:31;7.40;99.90
44695;DHT22;32845;59.422;17.930;2023-04-06T12:02:02;8.20;99.90
44695;DHT22;32845;59.422;17.930;2023-04-06T12:06:33;10.00;99.90
44695;DHT22;32845;59.422;17.930;2023-04-06T12:11:04;11.80;99.90
44695;DHT22;32845;59.422;17.930;2023-04-06T12:15:34;12.80;94.60
44695;DHT22;32845;59.422;17.930;2023-04-06T12:20:06;13.10;90.10
44695;DHT22;32845;59.422;17.930;2023-04-06T12:24:37;12.60;87.70
44695;DHT22;32845;59.422;17.930;2023-04-06T12:29:07;12.30;92.20
44695;DHT22;32845;59.422;17.930;2023-04-06T12:33:38;11.60;87.90
44695;DHT22;32845;59.422;17.930;2023-04-06T12:38:10;10.90;91.50
44695;DHT22;32845;59.422;17.930;2023-04-06T12:42:41;10.70;93.60
44695;DHT22;32845;59.422;17.930;2023-04-06T12:47:12;10.70;93.20
44695;DHT22;32845;59.422;17.930;2023-04-06T12:51:43;10.50;93.80
44695;DHT22;32845;59.422;17.930;2023-04-06T12:56:15;10.40;93.90
44695;DHT22;32845;59.422;17.930;2023-04-06T13:00:48;9.60;92.40
44695;DHT22;32845;59.422;17.930;2023-04-06T13:05:18;9.00;93.50
44695;DHT22;32845;59.422;17.930;2023-04-06T13:09:50;8.70;95.40
44695;DHT22;32845;59.422;17.930;2023-04-06T13:14:21;8.40;94.60
44695;DHT22;32845;59.422;17.930;2023-04-06T13:18:52;8.30;97.80
44695;DHT22;32845;59.422;17.930;2023-04-06T13:23:23;8.10;97.60
44695;DHT22;32845;59.422;17.930;2023-04-06T13:27:54;8.20;98.00
44695;DHT22;32845;59.422;17.930;2023-04-06T13:32:25;8.40;97.80
44695;DHT22;32845;59.422;17.930;2023-04-06T13:36:55;8.60;97.50
44695;DHT22;32845;59.422;17.930;2023-04-06T13:41:26;8.80;98.90
44695;DHT22;32845;59.422;17.930;2023-04-06T13:45:57;8.70;95.70
44695;DHT22;32845;59.422;17.930;2023-04-06T13:50:30;8.50;98.50
44695;DHT22;32845;59.422;17.930;2023-04-06T13:55:00;8.50;99.40
44695;DHT22;32845;59.422;17.930;2023-04-06T13:59:34;8.50;99.60
44695;DHT22;32845;59.422;17.930;2023-04-06T14:04:05;8.40;99.00
44695;DHT22;32845;59.422;17.930;2023-04-06T14:08:35;8.20;99.20
44695;DHT22;32845;59.422;17.930;2023-04-06T14:13:06;8.10;99.00
44695;DHT22;32845;59.422;17.930;2023-04-06T14:17:37;7.90;99.50
44695;DHT22;32845;59.422;17.930;2023-04-06T14:22:08;7.80;99.90
44695;DHT22;32845;59.422;17.930;2023-04-06T14:26:39;7.60;99.20
44695;DHT22;32845;59.422;17.930;2023-04-06T14:31:14;7.50;99.90
44695;DHT22;32845;59.422;17.930;2023-04-06T14:35:46;7.50;99.90
44695;DHT22;32845;59.422;17.930;2023-04-06T14:40:17;7.40;99.90
44695;DHT22;32845;59.422;17.930;2023-04-06T14:44:47;7.50;99.90
44695;DHT22;32845;59.422;17.930;2023-04-06T14:49:19;7.70;99.90
44695;DHT22;32845;59.422;17.930;2023-04-06T14:53:49;7.60;99.90
44695;DHT22;32845;59.422;17.930;2023-04-06T14:58:21;7.40;99.90
44695;DHT22;32845;59.422;17.930;2023-04-06T15:02:52;7.20;99.90
44695;DHT22;32845;59.422;17.930;2023-04-06T15:07:22;7.10;99.90
44695;DHT22;32845;59.422;17.930;2023-04-06T15:11:53;7.00;99.90
44695;DHT22;32845;59.422;17.930;2023-04-06T15:16:24;6.90;99.90
44695;DHT22;32845;59.422;17.930;2023-04-06T15:20:54;6.70;99.90
44695;DHT22;32845;59.422;17.930;2023-04-06T15:25:25;6.40;99.90
44695;DHT22;32845;59.422;17.930;2023-04-06T15:29:56;6.20;99.90
44695;DHT22;32845;59.422;17.930;2023-04-06T15:34:30;6.10;99.90
44695;DHT22;32845;59.422;17.930;2023-04-06T15:39:03;5.80;99.90
44695;DHT22;32845;59.422;17.930;2023-04-06T15:43:36;5.80;99.90
44695;DHT22;32845;59.422;17.930;2023-04-06T15:48:08;5.70;99.90
44695;DHT22;32845;59.422;17.930;2023-04-06T15:52:39;5.50;99.90
44695;DHT22;32845;59.422;17.930;2023-04-06T15:57:10;5.40;99.90
44695;DHT22;32845;59.422;17.930;2023-04-06T16:01:41;5.30;99.90
44695;DHT22;32845;59.422;17.930;2023-04-06T16:06:12;5.30;99.90
44695;DHT22;32845;59.422;17.930;2023-04-06T16:10:42;5.10;99.90
44695;DHT22;32845;59.422;17.930;2023-04-06T16:15:13;5.20;99.90
44695;DHT22;32845;59.422;17.930;2023-04-06T16:19:44;5.20;99.90
44695;DHT22;32845;59.422;17.930;2023-04-06T16:24:15;5.10;99.90
44695;DHT22;32845;59.422;17.930;2023-04-06T16:28:45;4.90;99.90
44695;DHT22;32845;59.422;17.930;2023-04-06T16:33:16;4.70;99.90
44695;DHT22;32845;59.422;17.930;2023-04-06T16:37:49;4.60;99.90
44695;DHT22;32845;59.422;17.930;2023-04-06T16:42:20;4.70;99.90
44695;DHT22;32845;59.422;17.930;2023-04-06T16:46:50;4.60;99.90
44695;DHT22;32845;59.422;17.930;2023-04-06T16:51:21;4.50;99.90
44695;DHT22;32845;59.422;17.930;2023-04-06T16:55:52;4.30;99.90
44695;DHT22;32845;59.422;17.930;2023-04-06T17:00:23;4.20;99.90
44695;DHT22;32845;59.422;17.930;2023-04-06T17:04:54;4.20;99.90
44695;DHT22;32845;59.422;17.930;2023-04-06T17:09:24;4.30;99.90
44695;DHT22;32845;59.422;17.930;2023-04-06T17:13:55;4.20;99.90
44695;DHT22;32845;59.422;17.930;2023-04-06T17:18:26;4.20;99.90
44695;DHT22;32845;59.422;17.930;2023-04-06T17:22:59;4.20;99.90
44695;DHT22;32845;59.422;17.930;2023-04-06T17:27:30;4.10;99.90
44695;DHT22;32845;59.422;17.930;2023-04-06T17:32:01;4.00;99.90
44695;DHT22;32845;59.422;17.930;2023-04-06T17:36:32;3.90;99.90
44695;DHT22;32845;59.422;17.930;2023-04-06T17:41:03;3.90;99.90
44695;DHT22;32845;59.422;17.930;2023-04-06T17:45:36;3.70;99.90
44695;DHT22;32845;59.422;17.930;2023-04-06T17:50:07;3.70;99.90
44695;DHT22;32845;59.422;17.930;2023-04-06T17:54:38;3.70;99.90
44695;DHT22;32845;59.422;17.930;2023-04-06T17:59:09;3.60;99.90
44695;DHT22;32845;59.422;17.930;2023-04-06T18:03:41;3.50;99.90
44695;DHT22;32845;59.422;17.930;2023-04-06T18:08:11;3.50;99.90
44695;DHT22;32845;59.422;17.930;2023-04-06T18:12:44;3.40;99.90
44695;DHT22;32845;59.422;17.930;2023-04-06T18:17:15;3.40;99.90
44695;DHT22;32845;59.422;17.930;2023-04-06T18:21:46;3.30;99.90
44695;DHT22;32845;59.422;17.930;2023-04-06T18:26:18;3.20;99.90
44695;DHT22;32845;59.422;17.930;2023-04-06T18:30:54;3.10;99.90
44695;DHT22;32845;59.422;17.930;2023-04-06T18:35:25;3.10;99.90
44695;DHT22;32845;59.422;17.930;2023-04-06T18:39:55;3.10;99.90
44695;DHT22;32845;59.422;17.930;2023-04-06T18:44:26;3.00;99.90
44695;DHT22;32845;59.422;17.930;2023-04-06T18:48:57;3.10;99.90
44695;DHT22;32845;59.422;17.930;2023-04-06T18:53:28;3.10;99.90
44695;DHT22;32845;59.422;17.930;2023-04-06T18:57:58;3.10;99.90
44695;DHT22;32845;59.422;17.930;2023-04-06T19:02:29;3.00;99.90
44695;DHT22;32845;59.422;17.930;2023-04-06T19:07:00;2.90;99.90
44695;DHT22;32845;59.422;17.930;2023-04-06T19:11:31;3.00;99.90
44695;DHT22;32845;59.422;17.930;2023-04-06T19:16:02;2.90;99.90
44695;DHT22;32845;59.422;17.930;2023-04-06T19:20:33;3.00;99.90
44695;DHT22;32845;59.422;17.930;2023-04-06T19:25:05;2.90;99.90
44695;DHT22;32845;59.422;17.930;2023-04-06T19:29:37;3.00;99.90
44695;DHT22;32845;59.422;17.930;2023-04-06T19:34:08;2.90;99.90
44695;DHT22;32845;59.422;17.930;2023-04-06T19:38:39;2.90;99.90
44695;DHT22;32845;59.422;17.930;2023-04-06T19:43:09;2.80;99.90
44695;DHT22;32845;59.422;17.930;2023-04-06T19:47:40;2.80;99.90
44695;DHT22;32845;59.422;17.930;2023-04-06T19:52:11;2.70;99.90
44695;DHT22;32845;59.422;17.930;2023-04-06T19:56:42;2.70;99.90
44695;DHT22;32845;59.422;17.930;2023-04-06T20:01:12;2.70;99.90
44695;DHT22;32845;59.422;17.930;2023-04-06T20:05:43;2.70;99.90
44695;DHT22;32845;59.422;17.930;2023-04-06T20:10:14;2.70;99.90
44695;DHT22;32845;59.422;17.930;2023-04-06T20:14:45;2.70;99.90
44695;DHT22;32845;59.422;17.930;2023-04-06T20:19:15;2.70;99.90
44695;DHT22;32845;59.422;17.930;2023-04-06T20:23:46;2.70;99.90
44695;DHT22;32845;59.422;17.930;2023-04-06T20:28:17;2.70;99.90
44695;DHT22;32845;59.422;17.930;2023-04-06T20:32:47;2.60;99.90
44695;DHT22;32845;59.422;17.930;2023-04-06T20:37:18;2.60;99.90
44695;DHT22;32845;59.422;17.930;2023-04-06T20:41:50;2.60;99.90
44695;DHT22;32845;59.422;17.930;2023-04-06T20:46:22;2.60;99.90
44695;DHT22;32845;59.422;17.930;2023-04-06T20:50:54;2.60;99.90
44695;DHT22;32845;59.422;17.930;2023-04-06T20:55:25;2.50;99.90
44695;DHT22;32845;59.422;17.930;2023-04-06T20:59:55;2.50;99.90
44695;DHT22;32845;59.422;17.930;2023-04-06T21:04:26;2.40;99.90
44695;DHT22;32845;59.422;17.930;2023-04-06T21:08:59;2.40;99.90
44695;DHT22;32845;59.422;17.930;2023-04-06T21:13:31;2.40;99.90
44695;DHT22;32845;59.422;17.930;2023-04-06T21:18:01;2.40;99.90
44695;DHT22;32845;59.422;17.930;2023-04-06T21:22:32;2.40;99.90
44695;DHT22;32845;59.422;17.930;2023-04-06T21:27:03;2.40;99.90
44695;DHT22;32845;59.422;17.930;2023-04-06T21:31:34;2.40;99.90
44695;DHT22;32845;59.422;17.930;2023-04-06T21:36:10;2.40;99.90
44695;DHT22;32845;59.422;17.930;2023-04-06T21:40:41;2.40;99.90
44695;DHT22;32845;59.422;17.930;2023-04-06T21:45:11;2.40;99.90
44695;DHT22;32845;59.422;17.930;2023-04-06T21:49:42;2.40;99.90
44695;DHT22;32845;59.422;17.930;2023-04-06T21:54:13;2.40;99.90
44695;DHT22;32845;59.422;17.930;2023-04-06T21:58:43;2.40;99.90
44695;DHT22;32845;59.422;17.930;2023-04-06T22:03:14;2.40;99.90
44695;DHT22;32845;59.422;17.930;2023-04-06T22:07:45;2.40;99.90
44695;DHT22;32845;59.422;17.930;2023-04-06T22:12:16;2.30;99.90
44695;DHT22;32845;59.422;17.930;2023-04-06T22:16:46;2.30;99.90
44695;DHT22;32845;59.422;17.930;2023-04-06T22:21:17;2.30;99.90
44695;DHT22;32845;59.422;17.930;2023-04-06T22:25:48;2.30;99.90
44695;DHT22;32845;59.422;17.930;2023-04-06T22:30:19;2.30;99.90
44695;DHT22;32845;59.422;17.930;2023-04-06T22:34:49;2.30;99.90
44695;DHT22;32845;59.422;17.930;2023-04-06T22:39:20;2.30;99.90
44695;DHT22;32845;59.422;17.930;2023-04-06T22:43:51;2.30;99.90
44695;DHT22;32845;59.422;17.930;2023-04-06T22:48:21;2.30;99.90
44695;DHT22;32845;59.422;17.930;2023-04-06T22:52:52;2.20;99.90
44695;DHT22;32845;59.422;17.930;2023-04-06T22:57:23;2.20;99.90
44695;DHT22;32845;59.422;17.930;2023-04-06T23:01:53;2.20;99.90
44695;DHT22;32845;59.422;17.930;2023-04-06T23:06:24;2.10;99.90
44695;DHT22;32845;59.422;17.930;2023-04-06T23:10:56;2.10;99.90
44695;DHT22;32845;59.422;17.930;2023-04-06T23:15:27;2.10;99.90
44695;DHT22;32845;59.422;17.930;2023-04-06T23:19:58;2.10;99.90
44695;DHT22;32845;59.422;17.930;2023-04-06T23:24:28;2.00;99.90
44695;DHT22;32845;59.422;17.930;2023-04-06T23:28:59;2.10;99.90
44695;DHT22;32845;59.422;17.930;2023-04-06T23:33:30;2.00;99.90
44695;DHT22;32845;59.422;17.930;2023-04-06T23:38:01;2.00;99.90
44695;DHT22;32845;59.422;17.930;2023-04-06T23:42:31;1.90;99.90
44695;DHT22;32845;59.422;17.930;2023-04-06T23:47:02;1.90;99.90
44695;DHT22;32845;59.422;17.930;2023-04-06T23:51:33;1.90;99.90
44695;DHT22;32845;59.422;17.930;2023-04-06T23:56:03;1.90;99.90
